createdAt,value
2018-08-04T00:01:20.500Z,14.53
2018-08-04T00:03:50.183Z,15.60
2018-08-04T00:06:19.880Z,15.25
2018-08-04T00:08:49.550Z,13.83
2018-08-04T00:11:19.227Z,13.20
2018-08-04T00:13:48.935Z,13.10
2018-08-04T00:16:18.990Z,14.53
2018-08-04T00:18:48.643Z,14.63
2018-08-04T00:21:18.361Z,14.80
2018-08-04T00:23:48.024Z,14.70
2018-08-04T00:26:17.739Z,14.78
2018-08-04T00:28:47.428Z,14.47
2018-08-04T00:31:17.139Z,14.73
2018-08-04T00:33:46.836Z,15.15
2018-08-04T00:36:16.935Z,15.20
2018-08-04T00:38:46.986Z,15.80
2018-08-04T00:41:16.712Z,15.38
2018-08-04T00:43:46.407Z,14.85
2018-08-04T00:46:16.165Z,15.78
2018-08-04T00:48:45.894Z,16.23
2018-08-04T00:51:15.948Z,15.60
2018-08-04T00:53:45.688Z,15.38
2018-08-04T00:56:15.394Z,15.20
2018-08-04T00:58:45.114Z,15.88
2018-08-04T01:01:14.826Z,14.18
2018-08-04T01:03:44.531Z,16.85
2018-08-04T01:06:14.242Z,15.65
2018-08-04T01:08:43.947Z,16.93
2018-08-04T01:11:13.662Z,16.60
2018-08-04T01:13:43.362Z,16.42
2018-08-04T01:16:13.418Z,17.23
2018-08-04T01:18:43.119Z,15.23
2018-08-04T01:21:12.843Z,16.85
2018-08-04T01:23:42.547Z,16.15
2018-08-04T01:26:12.249Z,16.60
2018-08-04T01:28:41.942Z,18.00
2018-08-04T01:31:11.650Z,17.23
2018-08-04T01:33:41.331Z,17.32
2018-08-04T01:36:11.387Z,17.42
2018-08-04T01:38:41.086Z,17.98
2018-08-04T01:41:10.891Z,16.02
2018-08-04T01:43:40.606Z,16.80
2018-08-04T01:46:10.302Z,18.67
2018-08-04T01:48:39.972Z,18.62
2018-08-04T01:51:10.016Z,19.42
2018-08-04T01:53:39.767Z,19.62
2018-08-04T01:56:09.654Z,17.77
2018-08-04T01:58:39.323Z,18.23
2018-08-04T02:01:09.039Z,17.57
2018-08-04T02:03:38.830Z,17.95
2018-08-04T02:06:08.567Z,17.15
2018-08-04T02:08:37.934Z,18.15
2018-08-04T02:11:07.570Z,17.80
2018-08-04T02:13:37.263Z,18.73
2018-08-04T02:16:06.975Z,19.10
2018-08-04T02:18:36.667Z,17.65
2018-08-04T02:21:06.723Z,19.35
2018-08-04T02:23:36.431Z,17.48
2018-08-04T02:26:06.435Z,16.32
2018-08-04T02:28:36.110Z,17.15
2018-08-04T02:31:06.213Z,16.70
2018-08-04T02:33:35.931Z,18.02
2018-08-04T02:36:05.751Z,18.95
2018-08-04T02:38:35.436Z,18.57
2018-08-04T02:41:05.154Z,17.98
2018-08-04T02:43:34.870Z,18.48
2018-08-04T02:46:05.260Z,19.32
2018-08-04T02:48:34.951Z,18.92
2018-08-04T02:51:05.008Z,17.95
2018-08-04T02:53:34.702Z,17.35
2018-08-04T02:56:04.739Z,19.20
2018-08-04T02:58:34.443Z,18.05
2018-08-04T03:01:04.167Z,17.40
2018-08-04T03:03:33.863Z,18.35
2018-08-04T03:06:03.567Z,19.02
2018-08-04T03:08:33.305Z,19.65
2018-08-04T03:11:03.215Z,16.95
2018-08-04T03:13:33.288Z,18.23
2018-08-04T03:16:03.055Z,16.77
2018-08-04T03:18:33.131Z,18.23
2018-08-04T03:21:02.910Z,17.45
2018-08-04T03:23:35.341Z,17.62
2018-08-04T03:26:05.436Z,17.62
2018-08-04T03:28:35.161Z,16.93
2018-08-04T03:31:04.939Z,18.92
2018-08-04T03:33:34.645Z,18.77
2018-08-04T03:36:04.371Z,19.35
2018-08-04T03:38:34.298Z,19.55
2018-08-04T03:41:04.023Z,19.32
2018-08-04T03:43:33.770Z,18.17
2018-08-04T03:46:03.494Z,20.17
2018-08-04T03:48:33.444Z,19.48
2018-08-04T03:51:03.167Z,18.32
2018-08-04T03:53:32.911Z,20.52
2018-08-04T03:56:02.662Z,17.80
2018-08-04T03:58:32.394Z,19.00
2018-08-04T04:01:02.099Z,20.72
2018-08-04T04:03:31.855Z,22.32
2018-08-04T04:06:01.560Z,19.75
2018-08-04T04:08:31.286Z,21.33
2018-08-04T04:11:00.979Z,21.82
2018-08-04T04:13:30.697Z,20.48
2018-08-04T04:16:00.394Z,20.65
2018-08-04T04:18:30.102Z,20.02
2018-08-04T04:20:59.806Z,20.57
2018-08-04T04:23:29.536Z,20.65
2018-08-04T04:25:59.223Z,20.65
2018-08-04T04:28:29.288Z,18.77
2018-08-04T04:30:58.988Z,20.08
2018-08-04T04:33:28.711Z,23.67
2018-08-04T04:35:58.407Z,22.65
2018-08-04T04:38:28.463Z,20.75
2018-08-04T04:40:58.203Z,19.27
2018-08-04T04:43:27.916Z,19.67
2018-08-04T04:45:57.606Z,19.55
2018-08-04T04:48:27.324Z,21.12
2018-08-04T04:50:57.377Z,24.15
2018-08-04T04:53:27.079Z,23.00
2018-08-04T04:55:56.770Z,20.15
2018-08-04T04:58:26.464Z,19.77
2018-08-04T05:00:56.173Z,19.75
2018-08-04T05:03:25.882Z,21.68
2018-08-04T05:05:55.619Z,20.43
2018-08-04T05:08:25.328Z,21.30
2018-08-04T05:10:56.735Z,20.48
2018-08-04T05:13:26.438Z,18.90
2018-08-04T05:15:56.290Z,18.82
2018-08-04T05:18:25.987Z,19.65
2018-08-04T05:20:55.752Z,20.48
2018-08-04T05:23:25.445Z,20.37
2018-08-04T05:25:55.114Z,20.15
2018-08-04T05:28:24.819Z,20.62
2018-08-04T05:30:54.500Z,19.50
2018-08-04T05:33:24.248Z,21.40
2018-08-04T05:35:54.864Z,21.95
2018-08-04T05:38:24.608Z,21.60
2018-08-04T05:40:54.288Z,21.55
2018-08-04T05:43:24.073Z,20.65
2018-08-04T05:45:53.999Z,21.00
2018-08-04T05:48:23.759Z,20.55
2018-08-04T05:50:53.478Z,20.62
2018-08-04T05:53:23.195Z,19.57
2018-08-04T05:55:52.896Z,18.95
2018-08-04T05:58:22.631Z,20.30
2018-08-04T06:00:52.339Z,19.15
2018-08-04T06:03:22.797Z,19.37
2018-08-04T06:05:52.646Z,19.32
2018-08-04T06:08:22.365Z,18.07
2018-08-04T06:10:52.426Z,21.12
2018-08-04T06:13:22.144Z,17.98
2018-08-04T06:15:51.900Z,19.87
2018-08-04T06:18:21.596Z,20.90
2018-08-04T06:20:51.351Z,19.23
2018-08-04T06:23:21.042Z,20.23
2018-08-04T06:25:50.760Z,18.05
2018-08-04T06:28:20.510Z,17.60
2018-08-04T06:30:50.399Z,17.32
2018-08-04T06:33:20.092Z,18.55
2018-08-04T06:35:49.494Z,19.92
2018-08-04T06:38:19.116Z,17.87
2018-08-04T06:40:48.848Z,18.37
2018-08-04T06:43:18.591Z,17.87
2018-08-04T06:45:48.319Z,16.73
2018-08-04T06:48:18.022Z,17.67
2018-08-04T06:50:47.739Z,17.23
2018-08-04T06:53:17.426Z,16.17
2018-08-04T06:55:47.492Z,15.70
2018-08-04T06:58:17.212Z,15.20
2018-08-04T07:00:47.076Z,15.43
2018-08-04T07:03:16.751Z,14.63
2018-08-04T07:05:46.478Z,14.73
2018-08-04T07:08:16.182Z,15.03
2018-08-04T07:10:45.905Z,14.50
2018-08-04T07:13:15.590Z,15.05
2018-08-04T07:15:45.319Z,14.90
2018-08-04T07:18:15.347Z,13.80
2018-08-04T07:20:45.058Z,14.38
2018-08-04T07:23:14.751Z,14.33
2018-08-04T07:25:44.471Z,13.45
2018-08-04T07:28:14.162Z,13.15
2018-08-04T07:30:43.871Z,13.50
2018-08-04T07:33:13.572Z,13.43
2018-08-04T07:35:44.571Z,14.00
2018-08-04T07:38:14.300Z,13.28
2018-08-04T07:40:44.011Z,13.43
2018-08-04T07:43:14.112Z,13.20
2018-08-04T07:45:44.227Z,12.90
2018-08-04T07:48:13.931Z,13.00
2018-08-04T07:50:43.655Z,12.98
2018-08-04T07:53:13.553Z,13.20
2018-08-04T07:55:43.307Z,12.68
2018-08-04T07:58:13.029Z,12.50
2018-08-04T08:00:42.804Z,13.38
2018-08-04T08:03:12.506Z,11.28
2018-08-04T08:05:42.238Z,12.00
2018-08-04T08:08:12.320Z,12.00
2018-08-04T08:10:41.811Z,11.75
2018-08-04T08:13:11.575Z,12.40
2018-08-04T08:15:41.672Z,12.03
2018-08-04T08:18:11.410Z,12.65
2018-08-04T08:20:41.234Z,12.00
2018-08-04T08:23:11.014Z,11.90
2018-08-04T08:25:45.616Z,12.55
2018-08-04T08:28:15.319Z,12.78
2018-08-04T08:30:45.049Z,12.18
2018-08-04T08:33:14.788Z,11.57
2018-08-04T08:35:44.884Z,12.63
2018-08-04T08:38:14.608Z,12.37
2018-08-04T08:40:44.398Z,12.82
2018-08-04T08:43:14.172Z,12.50
2018-08-04T08:45:43.896Z,12.85
2018-08-04T08:48:13.998Z,12.05
2018-08-04T08:50:44.038Z,12.28
2018-08-04T08:53:13.926Z,12.28
2018-08-04T08:55:43.807Z,12.73
2018-08-04T08:58:13.867Z,12.10
2018-08-04T09:00:43.576Z,12.03
2018-08-04T09:03:13.652Z,12.68
2018-08-04T09:05:43.714Z,12.78
2018-08-04T09:08:13.418Z,11.68
2018-08-04T09:10:43.124Z,12.37
2018-08-04T09:13:13.206Z,12.55
2018-08-04T09:15:42.978Z,12.63
2018-08-04T09:18:12.841Z,12.37
2018-08-04T09:20:42.550Z,12.58
2018-08-04T09:23:12.244Z,11.80
2018-08-04T09:25:41.979Z,11.63
2018-08-04T09:28:11.674Z,11.70
2018-08-04T09:30:41.387Z,11.60
2018-08-04T09:33:11.130Z,11.63
2018-08-04T09:35:40.800Z,11.15
2018-08-04T09:38:10.556Z,11.57
2018-08-04T09:40:40.427Z,10.95
2018-08-04T09:43:10.138Z,12.05
2018-08-04T09:45:45.279Z,12.20
2018-08-04T09:48:15.015Z,11.63
2018-08-04T09:50:44.763Z,11.48
2018-08-04T09:53:14.479Z,11.60
2018-08-04T09:55:43.882Z,9.97
2018-08-04T09:58:13.296Z,9.20
2018-08-04T10:00:50.534Z,8.73
2018-08-04T10:03:19.934Z,9.60
2018-08-04T10:05:49.675Z,9.40
2018-08-04T10:08:19.083Z,8.83
2018-08-04T10:10:48.519Z,8.70
2018-08-04T10:13:17.931Z,8.50
2018-08-04T10:15:47.359Z,8.73
2018-08-04T10:18:16.782Z,8.93
2018-08-04T10:20:46.187Z,9.10
2018-08-04T10:23:15.579Z,8.70
2018-08-04T10:25:44.984Z,9.47
2018-08-04T10:28:14.383Z,9.07
2018-08-04T10:30:44.091Z,13.58
2018-08-04T10:33:13.815Z,11.85
2018-08-04T10:35:43.201Z,9.67
2018-08-04T10:38:12.807Z,8.57
2018-08-04T10:40:42.183Z,9.13
2018-08-04T10:43:11.587Z,8.13
2018-08-04T10:45:43.778Z,7.60
2018-08-04T10:48:13.163Z,7.20
2018-08-04T10:50:42.532Z,7.20
2018-08-04T10:53:12.274Z,7.33
2018-08-04T10:55:41.675Z,7.20
2018-08-04T10:58:11.083Z,7.00
2018-08-04T11:00:40.467Z,6.20
2018-08-04T11:03:09.868Z,6.50
2018-08-04T11:05:39.238Z,6.87
2018-08-04T11:08:08.624Z,6.23
2018-08-04T11:10:38.008Z,6.13
2018-08-04T11:13:07.518Z,6.27
2018-08-04T11:15:36.916Z,7.33
2018-08-04T11:18:06.546Z,7.43
2018-08-04T11:20:36.117Z,7.80
2018-08-04T11:23:05.666Z,7.80
2018-08-04T11:25:35.607Z,7.90
2018-08-04T11:28:05.217Z,7.93
2018-08-04T11:30:34.788Z,6.73
2018-08-04T11:33:04.552Z,6.70
2018-08-04T11:35:35.671Z,6.50
2018-08-04T11:38:05.633Z,7.07
2018-08-04T11:40:35.016Z,7.93
2018-08-04T11:43:04.431Z,7.50
2018-08-04T11:45:34.601Z,7.70
2018-08-04T11:48:04.534Z,7.97
2018-08-04T11:50:33.943Z,7.20
2018-08-04T11:53:03.391Z,7.13
2018-08-04T11:55:32.859Z,7.73
2018-08-04T11:58:02.691Z,7.50
2018-08-04T12:00:32.094Z,7.17
2018-08-04T12:03:01.500Z,6.93
2018-08-04T12:05:31.157Z,7.50
2018-08-04T12:08:00.755Z,7.17
2018-08-04T12:10:30.188Z,7.30
2018-08-04T12:13:00.001Z,7.53
2018-08-04T12:15:29.430Z,7.17
2018-08-04T12:17:59.289Z,7.50
2018-08-04T12:20:28.884Z,9.00
2018-08-04T12:22:58.277Z,8.87
2018-08-04T12:25:27.717Z,8.90
2018-08-04T12:27:57.299Z,7.90
2018-08-04T12:30:26.710Z,8.33
2018-08-04T12:32:56.335Z,8.57
2018-08-04T12:35:25.755Z,8.77
2018-08-04T12:37:55.147Z,8.13
2018-08-04T12:40:24.931Z,8.17
2018-08-04T12:42:54.350Z,8.10
2018-08-04T12:45:26.780Z,8.23
2018-08-04T12:47:56.292Z,8.10
2018-08-04T12:50:25.718Z,8.07
2018-08-04T12:52:55.084Z,7.40
2018-08-04T12:55:24.842Z,8.37
2018-08-04T12:57:54.269Z,8.23
2018-08-04T13:00:23.686Z,7.60
2018-08-04T13:02:53.253Z,7.90
2018-08-04T13:05:22.628Z,7.93
2018-08-04T13:07:52.009Z,8.10
2018-08-04T13:10:21.424Z,8.17
2018-08-04T13:12:50.829Z,7.40
2018-08-04T13:15:20.240Z,8.27
2018-08-04T13:17:49.623Z,8.10
2018-08-04T13:20:19.046Z,7.60
2018-08-04T13:22:48.434Z,7.47
2018-08-04T13:25:17.878Z,7.53
2018-08-04T13:27:47.594Z,8.07
2018-08-04T13:30:17.008Z,8.17
2018-08-04T13:32:46.579Z,8.10
2018-08-04T13:35:15.970Z,7.67
2018-08-04T13:37:45.486Z,8.00
2018-08-04T13:40:14.883Z,7.90
2018-08-04T13:42:44.402Z,7.47
2018-08-04T13:45:19.514Z,7.13
2018-08-04T13:47:48.928Z,7.10
2018-08-04T13:50:18.377Z,7.33
2018-08-04T13:52:48.032Z,6.97
2018-08-04T13:55:17.562Z,7.67
2018-08-04T13:57:47.003Z,6.90
2018-08-04T14:00:16.442Z,7.17
2018-08-04T14:02:45.840Z,7.60
2018-08-04T14:05:15.230Z,7.37
2018-08-04T14:07:44.667Z,7.30
2018-08-04T14:10:14.176Z,7.50
2018-08-04T14:12:43.598Z,7.63
2018-08-04T14:15:13.211Z,7.10
2018-08-04T14:17:42.639Z,7.40
2018-08-04T14:20:12.069Z,7.00
2018-08-04T14:22:41.566Z,6.80
2018-08-04T14:25:10.984Z,6.60
2018-08-04T14:27:40.412Z,6.37
2018-08-04T14:30:10.488Z,6.70
2018-08-04T14:32:39.940Z,6.57
2018-08-04T14:35:09.362Z,7.00
2018-08-04T14:37:38.781Z,6.30
2018-08-04T14:40:08.530Z,6.50
2018-08-04T14:42:37.963Z,6.47
2018-08-04T14:45:07.911Z,6.13
2018-08-04T14:47:37.319Z,6.50
2018-08-04T14:50:07.084Z,6.30
2018-08-04T14:52:36.512Z,7.20
2018-08-04T14:55:06.147Z,6.53
2018-08-04T14:57:35.719Z,6.47
2018-08-04T15:00:05.624Z,6.40
2018-08-04T15:02:35.045Z,6.40
2018-08-04T15:05:04.483Z,6.90
2018-08-04T15:07:33.907Z,6.20
2018-08-04T15:10:03.368Z,6.30
2018-08-04T15:12:32.934Z,6.23
2018-08-04T15:15:02.346Z,6.20
2018-08-04T15:17:31.763Z,6.97
2018-08-04T15:20:01.197Z,5.90
2018-08-04T15:22:30.624Z,6.37
2018-08-04T15:25:00.411Z,5.80
2018-08-04T15:27:29.827Z,6.57
2018-08-04T15:29:59.231Z,6.00
2018-08-04T15:32:28.675Z,6.20
2018-08-04T15:34:58.576Z,6.37
2018-08-04T15:37:28.259Z,6.23
2018-08-04T15:39:57.669Z,6.13
2018-08-04T15:42:27.096Z,6.10
2018-08-04T15:44:56.528Z,6.10
2018-08-04T15:47:25.927Z,5.60
2018-08-04T15:49:55.315Z,5.97
2018-08-04T15:52:24.767Z,6.53
2018-08-04T15:54:54.176Z,6.63
2018-08-04T15:57:23.600Z,6.97
2018-08-04T15:59:52.998Z,7.00
2018-08-04T16:02:22.430Z,6.63
2018-08-04T16:04:51.822Z,5.73
2018-08-04T16:07:21.255Z,5.93
2018-08-04T16:09:50.648Z,5.43
2018-08-04T16:12:20.076Z,5.43
2018-08-04T16:14:49.483Z,5.67
2018-08-04T16:17:19.016Z,5.77
2018-08-04T16:19:48.411Z,6.03
2018-08-04T16:22:17.831Z,6.30
2018-08-04T16:24:47.248Z,6.17
2018-08-04T16:27:16.861Z,5.80
2018-08-04T16:29:46.247Z,5.57
2018-08-04T16:32:16.051Z,5.30
2018-08-04T16:34:45.455Z,5.67
2018-08-04T16:37:14.868Z,5.83
2018-08-04T16:39:44.289Z,5.97
2018-08-04T16:42:13.715Z,6.60
2018-08-04T16:44:43.187Z,6.27
2018-08-04T16:47:12.555Z,6.10
2018-08-04T16:49:41.938Z,7.10
2018-08-04T16:52:11.383Z,6.90
2018-08-04T16:54:41.578Z,6.67
2018-08-04T16:57:11.863Z,6.40
2018-08-04T16:59:44.115Z,6.13
2018-08-04T17:02:13.834Z,6.30
2018-08-04T17:04:43.226Z,6.83
2018-08-04T17:07:12.944Z,6.53
2018-08-04T17:09:42.423Z,6.43
2018-08-04T17:12:12.643Z,6.60
2018-08-04T17:14:42.949Z,5.93
2018-08-04T17:17:13.272Z,6.40
2018-08-04T17:19:42.684Z,6.30
2018-08-04T17:22:12.098Z,6.00
2018-08-04T17:24:41.670Z,7.77
2018-08-04T17:27:11.042Z,6.20
2018-08-04T17:29:40.923Z,6.43
2018-08-04T17:32:10.782Z,6.33
2018-08-04T17:34:40.205Z,6.60
2018-08-04T17:37:09.302Z,6.50
2018-08-04T17:39:38.633Z,6.23
2018-08-04T17:42:07.999Z,6.57
2018-08-04T17:44:37.476Z,6.60
2018-08-04T17:47:07.066Z,6.83
2018-08-04T17:49:36.860Z,6.63
2018-08-04T17:52:06.254Z,6.80
2018-08-04T17:54:36.011Z,6.50
2018-08-04T17:57:05.591Z,6.50
2018-08-04T17:59:35.206Z,6.47
2018-08-04T18:02:04.962Z,6.73
2018-08-04T18:04:34.395Z,6.07
2018-08-04T18:07:03.791Z,6.53
2018-08-04T18:09:33.671Z,6.57
2018-08-04T18:12:03.385Z,7.90
2018-08-04T18:14:32.812Z,6.73
2018-08-04T18:17:02.196Z,6.93
2018-08-04T18:19:31.639Z,8.67
2018-08-04T18:22:01.130Z,7.90
2018-08-04T18:24:30.936Z,8.40
2018-08-04T18:27:00.536Z,7.00
2018-08-04T18:29:30.094Z,7.80
2018-08-04T18:31:59.653Z,7.20
2018-08-04T18:34:29.735Z,8.67
2018-08-04T18:36:59.214Z,8.33
2018-08-04T18:39:28.659Z,9.33
2018-08-04T18:41:58.066Z,8.80
2018-08-04T18:44:28.016Z,9.13
2018-08-04T18:46:57.519Z,8.87
2018-08-04T18:49:26.934Z,9.13
2018-08-04T18:51:56.356Z,9.10
2018-08-04T18:54:25.852Z,8.43
2018-08-04T18:56:55.490Z,9.33
2018-08-04T18:59:25.226Z,9.23
2018-08-04T19:01:54.794Z,9.20
2018-08-04T19:04:26.769Z,9.23
2018-08-04T19:07:00.614Z,9.13
2018-08-04T19:09:40.432Z,9.20
2018-08-04T19:12:12.319Z,10.55
2018-08-04T19:14:44.355Z,10.73
2018-08-04T19:17:15.060Z,10.90
2018-08-04T19:19:44.850Z,11.12
2018-08-04T19:22:16.409Z,10.10
2018-08-04T19:24:46.886Z,9.93
2018-08-04T19:27:16.737Z,8.97
2018-08-04T19:29:49.354Z,10.60
2018-08-04T19:32:18.743Z,9.40
2018-08-04T19:34:48.167Z,9.67
2018-08-04T19:37:17.258Z,10.20
2018-08-04T19:39:46.569Z,8.90
2018-08-04T19:42:15.993Z,8.70
2018-08-04T19:44:45.443Z,9.13
2018-08-04T19:47:14.991Z,9.50
2018-08-04T19:49:44.431Z,9.43
2018-08-04T19:52:14.520Z,9.13
2018-08-04T19:54:44.203Z,9.03
2018-08-04T19:57:13.612Z,9.67
2018-08-04T19:59:43.299Z,10.55
2018-08-04T20:02:12.707Z,9.53
2018-08-04T20:04:42.422Z,12.18
2018-08-04T20:07:12.148Z,12.78
2018-08-04T20:09:41.876Z,10.40
2018-08-04T20:12:11.276Z,10.40
2018-08-04T20:14:41.021Z,10.05
2018-08-04T20:17:10.454Z,9.17
2018-08-04T20:19:39.844Z,8.80
2018-08-04T20:22:16.259Z,9.47
2018-08-04T20:24:46.342Z,9.43
2018-08-04T20:27:15.731Z,9.47
2018-08-04T20:29:45.228Z,10.10
2018-08-04T20:32:16.184Z,15.00
2018-08-04T20:34:46.718Z,9.40
2018-08-04T20:37:17.129Z,8.90
2018-08-04T20:39:46.929Z,9.53
2018-08-04T20:42:16.345Z,8.93
2018-08-04T20:44:45.795Z,9.13
2018-08-04T20:47:15.343Z,8.90
2018-08-04T20:49:44.707Z,9.43
2018-08-04T20:52:14.358Z,8.28
2018-08-04T20:54:44.219Z,8.40
2018-08-04T20:57:14.255Z,9.18
2018-08-04T20:59:44.015Z,8.45
2018-08-04T21:02:13.708Z,9.15
2018-08-04T21:04:43.412Z,9.18
2018-08-04T21:07:13.082Z,9.78
2018-08-04T21:09:42.774Z,10.65
2018-08-04T21:12:12.510Z,11.33
2018-08-04T21:14:42.267Z,11.45
2018-08-04T21:17:18.419Z,12.73
2018-08-04T21:19:48.194Z,11.08
2018-08-04T21:22:17.916Z,10.90
2018-08-04T21:24:47.604Z,11.95
2018-08-04T21:27:17.628Z,9.90
2018-08-04T21:29:47.318Z,11.33
2018-08-04T21:32:16.982Z,10.60
2018-08-04T21:34:46.662Z,11.05
2018-08-04T21:37:16.682Z,10.65
2018-08-04T21:39:46.379Z,10.50
2018-08-04T21:42:16.055Z,11.28
2018-08-04T21:44:48.718Z,11.08
2018-08-04T21:47:18.647Z,9.83
2018-08-04T21:49:52.694Z,10.60
2018-08-04T21:52:22.369Z,9.95
2018-08-04T21:54:52.620Z,9.70
2018-08-04T21:57:22.443Z,9.43
2018-08-04T21:59:52.111Z,9.48
2018-08-04T22:02:21.768Z,10.20
2018-08-04T22:04:51.435Z,9.48
2018-08-04T22:07:41.763Z,10.28
2018-08-04T22:10:12.563Z,9.93
2018-08-04T22:12:43.288Z,9.78
2018-08-04T22:15:14.248Z,10.35
2018-08-04T22:17:44.111Z,10.78
2018-08-04T22:20:15.095Z,11.43
2018-08-04T22:22:44.843Z,9.70
2018-08-04T22:25:15.850Z,10.65
2018-08-04T22:27:45.975Z,10.80
2018-08-04T22:30:17.546Z,10.13
2018-08-04T22:32:47.550Z,11.18
2018-08-04T22:35:17.786Z,10.63
2018-08-04T22:37:47.457Z,9.93
2018-08-04T22:40:18.102Z,10.03
2018-08-04T22:42:47.801Z,9.85
2018-08-04T22:46:26.715Z,9.95
2018-08-04T22:48:56.398Z,9.78
2018-08-04T22:51:28.187Z,9.93
2018-08-04T22:53:58.092Z,10.15
2018-08-04T22:56:27.749Z,10.20
2018-08-04T22:58:57.781Z,11.83
2018-08-04T23:01:27.483Z,11.33
2018-08-04T23:03:57.363Z,12.37
2018-08-04T23:06:27.081Z,12.70
2018-08-04T23:08:56.746Z,10.85
2018-08-04T23:11:26.638Z,10.93
2018-08-04T23:13:56.291Z,10.53
2018-08-04T23:16:25.978Z,10.72
2018-08-04T23:18:56.023Z,11.10
2018-08-04T23:21:25.724Z,10.93
2018-08-04T23:23:55.394Z,12.05
2018-08-04T23:26:25.083Z,12.55
2018-08-04T23:28:54.757Z,12.00
2018-08-04T23:31:24.443Z,12.03
2018-08-04T23:33:54.273Z,11.68
2018-08-04T23:36:23.967Z,12.15
2018-08-04T23:38:53.634Z,11.00
2018-08-04T23:41:23.322Z,11.03
2018-08-04T23:43:53.014Z,11.08
2018-08-04T23:46:22.822Z,10.32
2018-08-04T23:48:52.510Z,11.00
2018-08-04T23:51:22.207Z,12.33
2018-08-04T23:53:51.891Z,12.03
2018-08-04T23:56:21.946Z,11.57
2018-08-04T23:58:51.863Z,11.25
